Donny Nolan — WDI7388 — position and weather

sailwx.info

Track history (hours):
 
Tides and Currents Weather Stations Pressure Air Temp Water Temp Dewpoint Dewpoint Depression Visibility Wind Speed Wind Dir Waves Ship Positions

Donny Nolan

Owner: Kirby Inland Marine LP, Houston, TX. More information available from US FCC via Universal Licensing System and Coast Guard Vessel Documentation Center.

Last reported at 2017-Nov-24 06:29 UTC. Time now 2017-Nov-24 16:20 UTC.
Position N 29°31' W 094°53'.

Length 214 m; draft 3 m.

Type: . MMSI: 367415220.

Date/timePositionNaut miles runAvg speedWind from/ knotsBaromVisibWave heightAir tempDewpointWater temp
2017-Nov-24 06:29N 29°31' W 094°53'3 7.2
2017-Nov-24 06:00N 29°34' W 094°55'4 7.1
2017-Nov-24 05:30N 29°37' W 094°57'3 6.6
2017-Nov-24 05:00N 29°40' W 094°59'3 6.1
2017-Nov-24 04:30N 29°42' W 095°01'3 5.4
2017-Nov-24 04:00N 29°44' W 095°03'3 5.4
2017-Nov-24 03:31N 29°45' W 095°06'0 0.5
2017-Nov-24 03:00N 29°45' W 095°06'0 0.2
2017-Nov-24 02:30N 29°45' W 095°06'0 0.0
2017-Nov-24 02:00N 29°45' W 095°06'0 0.0
2017-Nov-24 01:30N 29°45' W 095°06'0 0.0
2017-Nov-24 01:00N 29°45' W 095°06'0 0.0
2017-Nov-24 00:30N 29°45' W 095°06'0 0.0
2017-Nov-24 00:00N 29°45' W 095°06'0 0.0
2017-Nov-23 23:30N 29°45' W 095°06'0 0.0
2017-Nov-23 23:01N 29°45' W 095°06'0 0.0
2017-Nov-23 22:30N 29°45' W 095°06'2 4.6
2017-Nov-23 22:00N 29°44' W 095°08'3 5.6
2017-Nov-23 21:29N 29°45' W 095°11'3 5.2
2017-Nov-23 20:59N 29°44' W 095°14'1 2.2
2017-Nov-23 20:30N 29°43' W 095°15'0 0.6
2017-Nov-23 20:00N 29°43' W 095°15'0 0.4
2017-Nov-23 19:29N 29°43' W 095°15'0 0.2
2017-Nov-23 18:56N 29°43' W 095°15'0 0.0
2017-Nov-23 17:35N 29°43' W 095°15'0 0.0
2017-Nov-23 17:27N 29°43' W 095°15'0 0.0
2017-Nov-23 16:57N 29°43' W 095°15'0 0.0
2017-Nov-23 16:21N 29°43' W 095°15'0 0.0
2017-Nov-23 15:13N 29°43' W 095°15'0 0.0
2017-Nov-23 14:59N 29°43' W 095°15'0 0.0
2017-Nov-23 14:24N 29°43' W 095°15'0 0.0
2017-Nov-23 13:30N 29°43' W 095°15'0 0.0
2017-Nov-23 12:54N 29°43' W 095°15'0 0.0
2017-Nov-23 12:29N 29°43' W 095°15'0 0.0
2017-Nov-23 11:54N 29°43' W 095°15'0 0.0
2017-Nov-23 11:30N 29°43' W 095°15'0 0.0
2017-Nov-23 11:00N 29°43' W 095°15'0 0.9
2017-Nov-23 10:30N 29°43' W 095°15'0 0.9
2017-Nov-23 09:57N 29°43' W 095°15'0 0.3
2017-Nov-23 09:30N 29°43' W 095°15'0 0.1
2017-Nov-23 09:00N 29°43' W 095°15'0 0.0
2017-Nov-23 08:30N 29°43' W 095°15'0 0.0
2017-Nov-23 07:58N 29°43' W 095°15'0 0.0
2017-Nov-23 07:29N 29°43' W 095°15'0 0.0
2017-Nov-23 07:00N 29°43' W 095°15'0 0.0
2017-Nov-23 04:54N 29°43' W 095°15'0 0.0
2017-Nov-23 04:20N 29°43' W 095°15'0 0.0
2017-Nov-23 03:59N 29°43' W 095°15'0 0.0
2017-Nov-23 03:30N 29°43' W 095°15'0 0.0
2017-Nov-23 02:57N 29°43' W 095°15'0 0.0
2017-Nov-23 02:30N 29°43' W 095°15'0 0.0
2017-Nov-23 01:58N 29°43' W 095°15'0 0.0
2017-Nov-23 01:29N 29°43' W 095°15'0 0.0
2017-Nov-23 01:00N 29°43' W 095°15'0 0.0
2017-Nov-23 00:29N 29°43' W 095°15'0 0.0
2017-Nov-23 00:00N 29°43' W 095°15'0 0.0
2017-Nov-22 23:30N 29°43' W 095°15'0 0.0
2017-Nov-22 22:59N 29°43' W 095°15'0 0.0
2017-Nov-22 22:30N 29°43' W 095°15'0 0.0
2017-Nov-22 21:58N 29°43' W 095°15'0 0.0
2017-Nov-22 21:29N 29°43' W 095°15'0 0.0
2017-Nov-22 20:55N 29°43' W 095°15'0 0.0
2017-Nov-22 20:30N 29°43' W 095°15'0 0.0
2017-Nov-22 19:59N 29°43' W 095°15'0 0.0
2017-Nov-22 19:29N 29°43' W 095°15'  
Track history (hours):
 
Tides and Currents Weather Stations Pressure Air Temp Water Temp Dewpoint Dewpoint Depression Visibility Wind Speed Wind Dir Waves Ship Positions

Donny Nolan

Owner: Kirby Inland Marine LP, Houston, TX. More information available from US FCC via Universal Licensing System and Coast Guard Vessel Documentation Center.

Last reported at 2017-Nov-24 06:29 UTC. Time now 2017-Nov-24 16:20 UTC.
Position N 29°31' W 094°53'.

Length 214 m; draft 3 m.

Type: . MMSI: 367415220.

Date/timePositionNaut miles runAvg speedWind from/ knotsBaromVisibWave heightAir tempDewpointWater temp
2017-Nov-24 06:29N 29°31' W 094°53'3 7.2
2017-Nov-24 06:00N 29°34' W 094°55'4 7.1
2017-Nov-24 05:30N 29°37' W 094°57'3 6.6
2017-Nov-24 05:00N 29°40' W 094°59'3 6.1
2017-Nov-24 04:30N 29°42' W 095°01'3 5.4
2017-Nov-24 04:00N 29°44' W 095°03'3 5.4
2017-Nov-24 03:31N 29°45' W 095°06'0 0.5
2017-Nov-24 03:00N 29°45' W 095°06'0 0.2
2017-Nov-24 02:30N 29°45' W 095°06'0 0.0
2017-Nov-24 02:00N 29°45' W 095°06'0 0.0
2017-Nov-24 01:30N 29°45' W 095°06'0 0.0
2017-Nov-24 01:00N 29°45' W 095°06'0 0.0
2017-Nov-24 00:30N 29°45' W 095°06'0 0.0
2017-Nov-24 00:00N 29°45' W 095°06'0 0.0
2017-Nov-23 23:30N 29°45' W 095°06'0 0.0
2017-Nov-23 23:01N 29°45' W 095°06'0 0.0
2017-Nov-23 22:30N 29°45' W 095°06'2 4.6
2017-Nov-23 22:00N 29°44' W 095°08'3 5.6
2017-Nov-23 21:29N 29°45' W 095°11'3 5.2
2017-Nov-23 20:59N 29°44' W 095°14'1 2.2
2017-Nov-23 20:30N 29°43' W 095°15'0 0.6
2017-Nov-23 20:00N 29°43' W 095°15'0 0.4
2017-Nov-23 19:29N 29°43' W 095°15'0 0.2
2017-Nov-23 18:56N 29°43' W 095°15'0 0.0
2017-Nov-23 17:35N 29°43' W 095°15'0 0.0
2017-Nov-23 17:27N 29°43' W 095°15'0 0.0
2017-Nov-23 16:57N 29°43' W 095°15'0 0.0
2017-Nov-23 16:21N 29°43' W 095°15'0 0.0
2017-Nov-23 15:13N 29°43' W 095°15'0 0.0
2017-Nov-23 14:59N 29°43' W 095°15'0 0.0
2017-Nov-23 14:24N 29°43' W 095°15'0 0.0
2017-Nov-23 13:30N 29°43' W 095°15'0 0.0
2017-Nov-23 12:54N 29°43' W 095°15'0 0.0
2017-Nov-23 12:29N 29°43' W 095°15'0 0.0
2017-Nov-23 11:54N 29°43' W 095°15'0 0.0
2017-Nov-23 11:30N 29°43' W 095°15'0 0.0
2017-Nov-23 11:00N 29°43' W 095°15'0 0.9
2017-Nov-23 10:30N 29°43' W 095°15'0 0.9
2017-Nov-23 09:57N 29°43' W 095°15'0 0.3
2017-Nov-23 09:30N 29°43' W 095°15'0 0.1
2017-Nov-23 09:00N 29°43' W 095°15'0 0.0
2017-Nov-23 08:30N 29°43' W 095°15'0 0.0
2017-Nov-23 07:58N 29°43' W 095°15'0 0.0
2017-Nov-23 07:29N 29°43' W 095°15'0 0.0
2017-Nov-23 07:00N 29°43' W 095°15'0 0.0
2017-Nov-23 04:54N 29°43' W 095°15'0 0.0
2017-Nov-23 04:20N 29°43' W 095°15'0 0.0
2017-Nov-23 03:59N 29°43' W 095°15'0 0.0
2017-Nov-23 03:30N 29°43' W 095°15'0 0.0
2017-Nov-23 02:57N 29°43' W 095°15'0 0.0
2017-Nov-23 02:30N 29°43' W 095°15'0 0.0
2017-Nov-23 01:58N 29°43' W 095°15'0 0.0
2017-Nov-23 01:29N 29°43' W 095°15'0 0.0
2017-Nov-23 01:00N 29°43' W 095°15'0 0.0
2017-Nov-23 00:29N 29°43' W 095°15'0 0.0
2017-Nov-23 00:00N 29°43' W 095°15'0 0.0
2017-Nov-22 23:30N 29°43' W 095°15'0 0.0
2017-Nov-22 22:59N 29°43' W 095°15'0 0.0
2017-Nov-22 22:30N 29°43' W 095°15'0 0.0
2017-Nov-22 21:58N 29°43' W 095°15'0 0.0
2017-Nov-22 21:29N 29°43' W 095°15'0 0.0
2017-Nov-22 20:55N 29°43' W 095°15'0 0.0
2017-Nov-22 20:30N 29°43' W 095°15'0 0.0
2017-Nov-22 19:59N 29°43' W 095°15'0 0.0
2017-Nov-22 19:29N 29°43' W 095°15'  

Dump ship's entire track history